sensor_id;sensor_type;location;lat;lon;timestamp;temperature;humidity
40828;DHT22;26549;50.918;5.338;2023-01-19T00:01:37;3.80;99.90
40828;DHT22;26549;50.918;5.338;2023-01-19T00:04:02;4.00;99.90
40828;DHT22;26549;50.918;5.338;2023-01-19T00:06:29;4.00;99.90
40828;DHT22;26549;50.918;5.338;2023-01-19T00:08:55;4.00;99.90
40828;DHT22;26549;50.918;5.338;2023-01-19T00:11:21;3.90;99.90
40828;DHT22;26549;50.918;5.338;2023-01-19T00:13:47;4.00;99.90
40828;DHT22;26549;50.918;5.338;2023-01-19T00:16:17;4.00;99.90
40828;DHT22;26549;50.918;5.338;2023-01-19T00:18:47;4.00;99.90
40828;DHT22;26549;50.918;5.338;2023-01-19T00:21:14;3.90;99.90
40828;DHT22;26549;50.918;5.338;2023-01-19T00:23:40;3.90;99.90
40828;DHT22;26549;50.918;5.338;2023-01-19T00:26:07;3.80;99.90
40828;DHT22;26549;50.918;5.338;2023-01-19T00:28:33;3.90;99.90
40828;DHT22;26549;50.918;5.338;2023-01-19T00:30:59;3.90;99.90
40828;DHT22;26549;50.918;5.338;2023-01-19T00:33:25;3.80;99.90
40828;DHT22;26549;50.918;5.338;2023-01-19T00:35:52;3.90;99.90
40828;DHT22;26549;50.918;5.338;2023-01-19T00:38:17;3.90;99.90
40828;DHT22;26549;50.918;5.338;2023-01-19T00:40:44;3.80;99.90
40828;DHT22;26549;50.918;5.338;2023-01-19T00:43:09;3.70;99.90
40828;DHT22;26549;50.918;5.338;2023-01-19T00:45:35;3.90;99.90
40828;DHT22;26549;50.918;5.338;2023-01-19T00:48:01;3.90;99.90
40828;DHT22;26549;50.918;5.338;2023-01-19T00:50:28;3.80;99.90
40828;DHT22;26549;50.918;5.338;2023-01-19T00:52:55;3.90;99.90
40828;DHT22;26549;50.918;5.338;2023-01-19T00:55:22;3.80;99.90
40828;DHT22;26549;50.918;5.338;2023-01-19T00:57:48;4.10;99.90
40828;DHT22;26549;50.918;5.338;2023-01-19T01:00:17;3.80;99.90
40828;DHT22;26549;50.918;5.338;2023-01-19T01:02:45;3.80;99.90
40828;DHT22;26549;50.918;5.338;2023-01-19T01:05:11;3.90;99.90
40828;DHT22;26549;50.918;5.338;2023-01-19T01:07:38;4.00;99.90
40828;DHT22;26549;50.918;5.338;2023-01-19T01:10:07;3.90;99.90
40828;DHT22;26549;50.918;5.338;2023-01-19T01:12:36;3.80;99.90
40828;DHT22;26549;50.918;5.338;2023-01-19T01:15:03;3.80;99.90
40828;DHT22;26549;50.918;5.338;2023-01-19T01:17:29;3.80;99.90
40828;DHT22;26549;50.918;5.338;2023-01-19T01:19:55;3.80;99.90
40828;DHT22;26549;50.918;5.338;2023-01-19T01:22:20;3.90;99.90
40828;DHT22;26549;50.918;5.338;2023-01-19T01:24:46;3.80;99.90
40828;DHT22;26549;50.918;5.338;2023-01-19T01:27:12;4.00;99.90
40828;DHT22;26549;50.918;5.338;2023-01-19T01:29:37;3.80;99.90
40828;DHT22;26549;50.918;5.338;2023-01-19T01:32:06;3.70;99.90
40828;DHT22;26549;50.918;5.338;2023-01-19T01:34:32;3.70;99.90
40828;DHT22;26549;50.918;5.338;2023-01-19T01:36:58;3.80;99.90
40828;DHT22;26549;50.918;5.338;2023-01-19T01:39:24;3.90;99.90
40828;DHT22;26549;50.918;5.338;2023-01-19T01:41:50;3.90;99.90
40828;DHT22;26549;50.918;5.338;2023-01-19T01:44:51;3.90;99.90
40828;DHT22;26549;50.918;5.338;2023-01-19T01:47:36;3.90;99.90
40828;DHT22;26549;50.918;5.338;2023-01-19T01:50:14;3.80;99.90
40828;DHT22;26549;50.918;5.338;2023-01-19T01:52:49;3.90;99.90
40828;DHT22;26549;50.918;5.338;2023-01-19T01:55:17;3.80;99.90
40828;DHT22;26549;50.918;5.338;2023-01-19T01:57:51;3.90;99.90
40828;DHT22;26549;50.918;5.338;2023-01-19T02:00:18;3.90;99.90
40828;DHT22;26549;50.918;5.338;2023-01-19T02:02:44;3.80;99.90
40828;DHT22;26549;50.918;5.338;2023-01-19T02:05:35;3.80;99.90
40828;DHT22;26549;50.918;5.338;2023-01-19T02:08:07;3.70;99.90
40828;DHT22;26549;50.918;5.338;2023-01-19T02:10:53;3.70;99.90
40828;DHT22;26549;50.918;5.338;2023-01-19T02:13:40;3.80;99.90
40828;DHT22;26549;50.918;5.338;2023-01-19T02:16:10;3.90;99.90
40828;DHT22;26549;50.918;5.338;2023-01-19T02:18:37;3.90;99.90
40828;DHT22;26549;50.918;5.338;2023-01-19T02:21:26;3.90;99.90
40828;DHT22;26549;50.918;5.338;2023-01-19T02:23:57;4.00;99.90
40828;DHT22;26549;50.918;5.338;2023-01-19T02:26:34;3.90;99.90
40828;DHT22;26549;50.918;5.338;2023-01-19T02:29:03;3.90;99.90
40828;DHT22;26549;50.918;5.338;2023-01-19T02:31:32;3.90;99.90
40828;DHT22;26549;50.918;5.338;2023-01-19T02:34:00;3.80;99.90
40828;DHT22;26549;50.918;5.338;2023-01-19T02:36:37;4.00;99.90
40828;DHT22;26549;50.918;5.338;2023-01-19T02:39:05;3.90;99.90
40828;DHT22;26549;50.918;5.338;2023-01-19T02:41:39;3.90;99.90
40828;DHT22;26549;50.918;5.338;2023-01-19T02:44:07;3.70;99.90
40828;DHT22;26549;50.918;5.338;2023-01-19T02:46:35;3.70;99.90
40828;DHT22;26549;50.918;5.338;2023-01-19T02:49:01;3.70;99.90
40828;DHT22;26549;50.918;5.338;2023-01-19T02:51:27;3.80;99.90
40828;DHT22;26549;50.918;5.338;2023-01-19T02:56:48;3.90;99.90
40828;DHT22;26549;50.918;5.338;2023-01-19T03:02:00;3.80;99.90
40828;DHT22;26549;50.918;5.338;2023-01-19T03:12:48;3.80;99.90
40828;DHT22;26549;50.918;5.338;2023-01-19T03:15:27;3.80;99.90
40828;DHT22;26549;50.918;5.338;2023-01-19T03:17:57;3.60;99.90
40828;DHT22;26549;50.918;5.338;2023-01-19T03:20:24;3.70;99.90
40828;DHT22;26549;50.918;5.338;2023-01-19T03:22:59;3.70;99.90
40828;DHT22;26549;50.918;5.338;2023-01-19T03:25:27;3.60;99.90
40828;DHT22;26549;50.918;5.338;2023-01-19T03:27:56;3.60;99.90
40828;DHT22;26549;50.918;5.338;2023-01-19T03:30:26;3.70;99.90
40828;DHT22;26549;50.918;5.338;2023-01-19T03:32:57;3.70;99.90
40828;DHT22;26549;50.918;5.338;2023-01-19T03:35:27;3.80;99.90
40828;DHT22;26549;50.918;5.338;2023-01-19T03:37:55;3.80;99.90
40828;DHT22;26549;50.918;5.338;2023-01-19T03:40:26;3.80;99.90
40828;DHT22;26549;50.918;5.338;2023-01-19T03:42:52;3.80;99.90
40828;DHT22;26549;50.918;5.338;2023-01-19T03:45:18;3.80;99.90
40828;DHT22;26549;50.918;5.338;2023-01-19T03:47:46;3.80;99.90
40828;DHT22;26549;50.918;5.338;2023-01-19T03:50:24;3.90;99.90
40828;DHT22;26549;50.918;5.338;2023-01-19T03:53:10;3.90;99.90
40828;DHT22;26549;50.918;5.338;2023-01-19T03:55:38;4.00;99.90
40828;DHT22;26549;50.918;5.338;2023-01-19T03:58:05;3.90;99.90
40828;DHT22;26549;50.918;5.338;2023-01-19T04:00:32;4.10;99.90
40828;DHT22;26549;50.918;5.338;2023-01-19T04:02:57;4.00;99.90
40828;DHT22;26549;50.918;5.338;2023-01-19T04:05:23;3.90;99.90
40828;DHT22;26549;50.918;5.338;2023-01-19T04:07:50;3.90;99.90
40828;DHT22;26549;50.918;5.338;2023-01-19T04:10:17;4.10;99.90
40828;DHT22;26549;50.918;5.338;2023-01-19T04:12:44;4.20;99.90
40828;DHT22;26549;50.918;5.338;2023-01-19T04:15:10;4.00;99.90
40828;DHT22;26549;50.918;5.338;2023-01-19T04:17:36;3.90;99.90
40828;DHT22;26549;50.918;5.338;2023-01-19T04:20:03;3.90;99.90
40828;DHT22;26549;50.918;5.338;2023-01-19T04:22:29;3.90;99.90
40828;DHT22;26549;50.918;5.338;2023-01-19T04:24:55;4.00;99.90
40828;DHT22;26549;50.918;5.338;2023-01-19T04:27:21;3.90;99.90
40828;DHT22;26549;50.918;5.338;2023-01-19T04:29:46;3.90;99.90
40828;DHT22;26549;50.918;5.338;2023-01-19T04:32:13;3.80;99.90
40828;DHT22;26549;50.918;5.338;2023-01-19T04:34:38;3.90;99.90
40828;DHT22;26549;50.918;5.338;2023-01-19T04:37:04;3.90;99.90
40828;DHT22;26549;50.918;5.338;2023-01-19T04:39:30;3.90;99.90
40828;DHT22;26549;50.918;5.338;2023-01-19T04:41:56;3.80;99.90
40828;DHT22;26549;50.918;5.338;2023-01-19T04:44:22;3.90;99.90
40828;DHT22;26549;50.918;5.338;2023-01-19T04:46:48;3.90;99.90
40828;DHT22;26549;50.918;5.338;2023-01-19T04:49:16;4.00;99.90
40828;DHT22;26549;50.918;5.338;2023-01-19T04:51:42;3.80;99.90
40828;DHT22;26549;50.918;5.338;2023-01-19T04:54:08;3.90;99.90
40828;DHT22;26549;50.918;5.338;2023-01-19T04:56:34;3.80;99.90
40828;DHT22;26549;50.918;5.338;2023-01-19T04:59:00;3.80;99.90
40828;DHT22;26549;50.918;5.338;2023-01-19T05:01:26;3.80;99.90
40828;DHT22;26549;50.918;5.338;2023-01-19T05:03:52;3.90;99.90
40828;DHT22;26549;50.918;5.338;2023-01-19T05:06:18;3.80;99.90
40828;DHT22;26549;50.918;5.338;2023-01-19T05:08:43;3.90;99.90
40828;DHT22;26549;50.918;5.338;2023-01-19T05:11:09;4.00;99.90
40828;DHT22;26549;50.918;5.338;2023-01-19T05:13:35;4.10;99.90
40828;DHT22;26549;50.918;5.338;2023-01-19T05:16:01;4.10;99.90
40828;DHT22;26549;50.918;5.338;2023-01-19T05:18:27;4.10;99.90
40828;DHT22;26549;50.918;5.338;2023-01-19T05:20:54;4.00;99.90
40828;DHT22;26549;50.918;5.338;2023-01-19T05:23:20;4.00;99.90
40828;DHT22;26549;50.918;5.338;2023-01-19T05:25:46;3.90;99.90
40828;DHT22;26549;50.918;5.338;2023-01-19T05:28:12;4.10;99.90
40828;DHT22;26549;50.918;5.338;2023-01-19T05:30:37;4.10;99.90
40828;DHT22;26549;50.918;5.338;2023-01-19T05:33:03;4.00;99.90
40828;DHT22;26549;50.918;5.338;2023-01-19T05:35:29;4.00;99.90
40828;DHT22;26549;50.918;5.338;2023-01-19T05:37:55;4.10;99.90
40828;DHT22;26549;50.918;5.338;2023-01-19T05:40:21;4.10;99.90
40828;DHT22;26549;50.918;5.338;2023-01-19T05:42:47;4.10;99.90
40828;DHT22;26549;50.918;5.338;2023-01-19T05:45:13;4.00;99.90
40828;DHT22;26549;50.918;5.338;2023-01-19T05:47:39;3.90;99.90
40828;DHT22;26549;50.918;5.338;2023-01-19T05:50:05;4.00;99.90
40828;DHT22;26549;50.918;5.338;2023-01-19T05:52:31;4.00;99.90
40828;DHT22;26549;50.918;5.338;2023-01-19T05:54:57;4.10;99.90
40828;DHT22;26549;50.918;5.338;2023-01-19T05:57:22;4.10;99.90
40828;DHT22;26549;50.918;5.338;2023-01-19T05:59:48;4.00;99.90
40828;DHT22;26549;50.918;5.338;2023-01-19T06:02:14;4.00;99.90
40828;DHT22;26549;50.918;5.338;2023-01-19T06:04:39;4.00;99.90
40828;DHT22;26549;50.918;5.338;2023-01-19T06:07:05;4.10;99.90
40828;DHT22;26549;50.918;5.338;2023-01-19T06:09:32;4.00;99.90
40828;DHT22;26549;50.918;5.338;2023-01-19T06:11:58;4.10;99.90
40828;DHT22;26549;50.918;5.338;2023-01-19T06:14:25;4.10;99.90
40828;DHT22;26549;50.918;5.338;2023-01-19T06:16:51;4.10;99.90
40828;DHT22;26549;50.918;5.338;2023-01-19T06:19:17;4.10;99.90
40828;DHT22;26549;50.918;5.338;2023-01-19T06:21:42;4.00;99.90
40828;DHT22;26549;50.918;5.338;2023-01-19T06:24:14;4.10;99.90
40828;DHT22;26549;50.918;5.338;2023-01-19T06:26:40;4.10;99.90
40828;DHT22;26549;50.918;5.338;2023-01-19T06:29:10;4.30;99.90
40828;DHT22;26549;50.918;5.338;2023-01-19T06:31:36;4.00;99.90
40828;DHT22;26549;50.918;5.338;2023-01-19T06:34:02;4.10;99.90
40828;DHT22;26549;50.918;5.338;2023-01-19T06:36:28;4.00;99.90
40828;DHT22;26549;50.918;5.338;2023-01-19T06:38:54;4.10;99.90
40828;DHT22;26549;50.918;5.338;2023-01-19T06:41:20;4.10;99.90
40828;DHT22;26549;50.918;5.338;2023-01-19T06:43:45;4.00;99.90
40828;DHT22;26549;50.918;5.338;2023-01-19T06:46:11;4.00;99.90
40828;DHT22;26549;50.918;5.338;2023-01-19T06:48:38;4.00;99.90
40828;DHT22;26549;50.918;5.338;2023-01-19T06:51:04;3.90;99.90
40828;DHT22;26549;50.918;5.338;2023-01-19T06:53:31;3.90;99.90
40828;DHT22;26549;50.918;5.338;2023-01-19T06:56:01;4.00;99.90
40828;DHT22;26549;50.918;5.338;2023-01-19T06:58:30;4.10;99.90
40828;DHT22;26549;50.918;5.338;2023-01-19T07:01:03;4.20;99.90
40828;DHT22;26549;50.918;5.338;2023-01-19T07:03:29;4.00;99.90
40828;DHT22;26549;50.918;5.338;2023-01-19T07:05:55;4.20;99.90
40828;DHT22;26549;50.918;5.338;2023-01-19T07:08:22;4.30;99.90
40828;DHT22;26549;50.918;5.338;2023-01-19T07:10:48;4.40;99.90
40828;DHT22;26549;50.918;5.338;2023-01-19T07:13:14;4.30;99.90
40828;DHT22;26549;50.918;5.338;2023-01-19T07:15:40;4.30;99.90
40828;DHT22;26549;50.918;5.338;2023-01-19T07:18:06;4.30;99.90
40828;DHT22;26549;50.918;5.338;2023-01-19T07:20:36;4.20;99.90
40828;DHT22;26549;50.918;5.338;2023-01-19T07:23:02;4.40;99.90
40828;DHT22;26549;50.918;5.338;2023-01-19T07:25:29;4.30;99.90
40828;DHT22;26549;50.918;5.338;2023-01-19T07:27:58;4.30;99.90
40828;DHT22;26549;50.918;5.338;2023-01-19T07:30:24;4.40;99.90
40828;DHT22;26549;50.918;5.338;2023-01-19T07:32:50;4.20;99.90
40828;DHT22;26549;50.918;5.338;2023-01-19T07:35:16;4.20;99.90
40828;DHT22;26549;50.918;5.338;2023-01-19T07:37:42;4.30;99.90
40828;DHT22;26549;50.918;5.338;2023-01-19T07:40:08;4.40;99.90
40828;DHT22;26549;50.918;5.338;2023-01-19T07:42:34;4.30;99.90
40828;DHT22;26549;50.918;5.338;2023-01-19T07:44:59;4.10;99.90
40828;DHT22;26549;50.918;5.338;2023-01-19T07:47:25;4.30;99.90
40828;DHT22;26549;50.918;5.338;2023-01-19T07:49:51;4.20;99.90
40828;DHT22;26549;50.918;5.338;2023-01-19T07:52:17;4.30;99.90
40828;DHT22;26549;50.918;5.338;2023-01-19T07:54:43;4.40;99.90
40828;DHT22;26549;50.918;5.338;2023-01-19T07:57:09;4.30;99.90
40828;DHT22;26549;50.918;5.338;2023-01-19T07:59:34;4.30;99.90
40828;DHT22;26549;50.918;5.338;2023-01-19T08:02:00;4.30;99.90
40828;DHT22;26549;50.918;5.338;2023-01-19T08:04:27;4.20;99.90
40828;DHT22;26549;50.918;5.338;2023-01-19T08:06:53;4.40;99.90
40828;DHT22;26549;50.918;5.338;2023-01-19T08:09:19;4.40;99.90
40828;DHT22;26549;50.918;5.338;2023-01-19T08:11:45;4.40;99.90
40828;DHT22;26549;50.918;5.338;2023-01-19T08:14:11;4.50;99.90
40828;DHT22;26549;50.918;5.338;2023-01-19T08:16:37;4.50;99.90
40828;DHT22;26549;50.918;5.338;2023-01-19T08:19:02;4.40;99.90
40828;DHT22;26549;50.918;5.338;2023-01-19T08:21:28;4.40;99.90
40828;DHT22;26549;50.918;5.338;2023-01-19T08:23:56;4.50;99.90
40828;DHT22;26549;50.918;5.338;2023-01-19T08:26:30;4.50;99.90
40828;DHT22;26549;50.918;5.338;2023-01-19T08:28:58;4.40;99.90
40828;DHT22;26549;50.918;5.338;2023-01-19T08:31:24;4.30;99.90
40828;DHT22;26549;50.918;5.338;2023-01-19T08:33:50;4.30;99.90
40828;DHT22;26549;50.918;5.338;2023-01-19T08:36:16;4.30;99.90
40828;DHT22;26549;50.918;5.338;2023-01-19T08:38:46;4.30;99.90
40828;DHT22;26549;50.918;5.338;2023-01-19T08:41:12;4.30;99.90
40828;DHT22;26549;50.918;5.338;2023-01-19T08:43:38;4.30;99.90
40828;DHT22;26549;50.918;5.338;2023-01-19T08:46:04;4.40;99.90
40828;DHT22;26549;50.918;5.338;2023-01-19T08:48:30;4.30;99.90
40828;DHT22;26549;50.918;5.338;2023-01-19T08:50:56;4.30;99.90
40828;DHT22;26549;50.918;5.338;2023-01-19T08:53:22;4.40;99.90
40828;DHT22;26549;50.918;5.338;2023-01-19T08:55:49;4.50;99.90
40828;DHT22;26549;50.918;5.338;2023-01-19T08:58:15;4.30;99.90
40828;DHT22;26549;50.918;5.338;2023-01-19T09:00:41;4.30;99.90
40828;DHT22;26549;50.918;5.338;2023-01-19T09:03:10;4.30;99.90
40828;DHT22;26549;50.918;5.338;2023-01-19T09:05:36;4.40;99.90
40828;DHT22;26549;50.918;5.338;2023-01-19T09:08:13;4.60;99.90
40828;DHT22;26549;50.918;5.338;2023-01-19T09:10:46;4.60;99.90
40828;DHT22;26549;50.918;5.338;2023-01-19T09:13:12;4.70;99.90
40828;DHT22;26549;50.918;5.338;2023-01-19T09:15:39;4.60;99.90
40828;DHT22;26549;50.918;5.338;2023-01-19T09:18:07;4.70;99.90
40828;DHT22;26549;50.918;5.338;2023-01-19T09:20:35;4.90;99.90
40828;DHT22;26549;50.918;5.338;2023-01-19T09:23:03;4.80;99.90
40828;DHT22;26549;50.918;5.338;2023-01-19T09:25:29;4.60;99.90
40828;DHT22;26549;50.918;5.338;2023-01-19T09:27:55;4.70;99.90
40828;DHT22;26549;50.918;5.338;2023-01-19T09:30:20;4.90;99.90
40828;DHT22;26549;50.918;5.338;2023-01-19T09:32:46;4.90;99.90
40828;DHT22;26549;50.918;5.338;2023-01-19T09:35:12;5.10;99.90
40828;DHT22;26549;50.918;5.338;2023-01-19T09:37:38;5.10;99.90
40828;DHT22;26549;50.918;5.338;2023-01-19T09:40:05;5.00;99.90
40828;DHT22;26549;50.918;5.338;2023-01-19T09:42:42;5.00;99.90
40828;DHT22;26549;50.918;5.338;2023-01-19T09:46:00;5.30;99.90
40828;DHT22;26549;50.918;5.338;2023-01-19T09:51:05;5.30;99.90
40828;DHT22;26549;50.918;5.338;2023-01-19T09:56:10;5.20;99.90
40828;DHT22;26549;50.918;5.338;2023-01-19T09:58:36;5.30;99.90
40828;DHT22;26549;50.918;5.338;2023-01-19T10:01:22;5.20;99.90
40828;DHT22;26549;50.918;5.338;2023-01-19T10:04:07;5.20;99.90
40828;DHT22;26549;50.918;5.338;2023-01-19T10:06:34;5.20;99.90
40828;DHT22;26549;50.918;5.338;2023-01-19T10:09:16;5.40;99.90
40828;DHT22;26549;50.918;5.338;2023-01-19T10:11:51;5.30;99.90
40828;DHT22;26549;50.918;5.338;2023-01-19T10:14:34;5.20;99.90
40828;DHT22;26549;50.918;5.338;2023-01-19T10:17:23;5.30;99.90
40828;DHT22;26549;50.918;5.338;2023-01-19T10:19:54;5.20;99.90
40828;DHT22;26549;50.918;5.338;2023-01-19T10:22:27;5.20;99.90
40828;DHT22;26549;50.918;5.338;2023-01-19T10:25:00;5.20;99.90
40828;DHT22;26549;50.918;5.338;2023-01-19T10:27:31;5.10;99.90
40828;DHT22;26549;50.918;5.338;2023-01-19T10:30:00;5.20;99.90
40828;DHT22;26549;50.918;5.338;2023-01-19T10:32:29;5.20;99.90
40828;DHT22;26549;50.918;5.338;2023-01-19T10:34:57;5.10;99.90
40828;DHT22;26549;50.918;5.338;2023-01-19T10:37:28;5.00;99.90
40828;DHT22;26549;50.918;5.338;2023-01-19T10:42:35;5.10;99.90
40828;DHT22;26549;50.918;5.338;2023-01-19T10:45:01;5.10;99.90
40828;DHT22;26549;50.918;5.338;2023-01-19T10:47:33;5.30;99.90
40828;DHT22;26549;50.918;5.338;2023-01-19T10:50:20;5.20;99.90
40828;DHT22;26549;50.918;5.338;2023-01-19T10:52:52;5.30;99.90
40828;DHT22;26549;50.918;5.338;2023-01-19T10:55:28;5.30;99.90
40828;DHT22;26549;50.918;5.338;2023-01-19T10:57:55;5.30;99.90
40828;DHT22;26549;50.918;5.338;2023-01-19T11:00:41;5.30;99.90
40828;DHT22;26549;50.918;5.338;2023-01-19T11:03:23;5.30;99.90
40828;DHT22;26549;50.918;5.338;2023-01-19T11:05:52;5.30;99.90
40828;DHT22;26549;50.918;5.338;2023-01-19T11:08:41;5.10;99.90
40828;DHT22;26549;50.918;5.338;2023-01-19T11:11:08;5.20;99.90
40828;DHT22;26549;50.918;5.338;2023-01-19T11:13:35;5.40;99.90
40828;DHT22;26549;50.918;5.338;2023-01-19T11:16:11;5.20;99.90
40828;DHT22;26549;50.918;5.338;2023-01-19T11:18:40;5.10;99.90
40828;DHT22;26549;50.918;5.338;2023-01-19T11:21:10;5.30;99.90
40828;DHT22;26549;50.918;5.338;2023-01-19T11:23:43;5.10;99.90
40828;DHT22;26549;50.918;5.338;2023-01-19T11:26:23;5.10;99.90
40828;DHT22;26549;50.918;5.338;2023-01-19T11:28:51;5.20;99.90
40828;DHT22;26549;50.918;5.338;2023-01-19T11:31:39;5.20;99.90
40828;DHT22;26549;50.918;5.338;2023-01-19T11:36:55;5.20;99.90
40828;DHT22;26549;50.918;5.338;2023-01-19T11:39:24;5.20;99.90
40828;DHT22;26549;50.918;5.338;2023-01-19T11:41:53;5.10;99.90
40828;DHT22;26549;50.918;5.338;2023-01-19T11:44:32;5.10;99.90
40828;DHT22;26549;50.918;5.338;2023-01-19T11:47:10;5.00;99.90
40828;DHT22;26549;50.918;5.338;2023-01-19T11:49:48;5.20;99.90
40828;DHT22;26549;50.918;5.338;2023-01-19T11:52:43;5.30;99.90
40828;DHT22;26549;50.918;5.338;2023-01-19T11:55:35;5.30;99.90
40828;DHT22;26549;50.918;5.338;2023-01-19T11:58:02;5.20;99.90
40828;DHT22;26549;50.918;5.338;2023-01-19T12:00:39;5.10;99.90
40828;DHT22;26549;50.918;5.338;2023-01-19T12:03:31;5.00;99.90
40828;DHT22;26549;50.918;5.338;2023-01-19T12:08:49;5.00;99.90
40828;DHT22;26549;50.918;5.338;2023-01-19T12:11:21;5.10;99.90
40828;DHT22;26549;50.918;5.338;2023-01-19T12:13:48;5.10;99.90
40828;DHT22;26549;50.918;5.338;2023-01-19T12:16:20;5.10;99.90
40828;DHT22;26549;50.918;5.338;2023-01-19T12:18:59;5.20;99.90
40828;DHT22;26549;50.918;5.338;2023-01-19T12:21:26;5.30;99.90
40828;DHT22;26549;50.918;5.338;2023-01-19T12:24:04;5.30;99.90
40828;DHT22;26549;50.918;5.338;2023-01-19T12:26:35;5.50;99.90
40828;DHT22;26549;50.918;5.338;2023-01-19T12:29:14;5.30;99.90
40828;DHT22;26549;50.918;5.338;2023-01-19T12:31:41;5.40;99.90
40828;DHT22;26549;50.918;5.338;2023-01-19T12:34:26;5.50;99.90
40828;DHT22;26549;50.918;5.338;2023-01-19T12:37:02;5.30;99.90
40828;DHT22;26549;50.918;5.338;2023-01-19T12:39:28;5.30;99.90
40828;DHT22;26549;50.918;5.338;2023-01-19T12:42:10;5.20;99.90
40828;DHT22;26549;50.918;5.338;2023-01-19T12:44:37;5.40;99.90
40828;DHT22;26549;50.918;5.338;2023-01-19T12:57:37;5.50;99.90
40828;DHT22;26549;50.918;5.338;2023-01-19T13:02:55;5.40;99.90
40828;DHT22;26549;50.918;5.338;2023-01-19T13:05:46;5.50;99.90
40828;DHT22;26549;50.918;5.338;2023-01-19T13:18:46;5.70;99.90
40828;DHT22;26549;50.918;5.338;2023-01-19T13:24:03;5.80;99.90
40828;DHT22;26549;50.918;5.338;2023-01-19T13:26:34;5.80;99.90
40828;DHT22;26549;50.918;5.338;2023-01-19T13:29:28;5.90;99.90
40828;DHT22;26549;50.918;5.338;2023-01-19T13:31:56;6.00;99.90
40828;DHT22;26549;50.918;5.338;2023-01-19T13:34:38;6.10;99.90
40828;DHT22;26549;50.918;5.338;2023-01-19T13:37:05;6.10;99.90
40828;DHT22;26549;50.918;5.338;2023-01-19T13:39:39;6.10;99.90
40828;DHT22;26549;50.918;5.338;2023-01-19T13:42:29;6.20;99.90
40828;DHT22;26549;50.918;5.338;2023-01-19T13:47:50;6.30;99.90
40828;DHT22;26549;50.918;5.338;2023-01-19T13:50:29;6.40;99.90
40828;DHT22;26549;50.918;5.338;2023-01-19T13:52:56;6.40;99.90
40828;DHT22;26549;50.918;5.338;2023-01-19T13:55:24;6.30;99.90
40828;DHT22;26549;50.918;5.338;2023-01-19T13:57:51;6.40;99.90
40828;DHT22;26549;50.918;5.338;2023-01-19T14:00:20;6.40;99.90
40828;DHT22;26549;50.918;5.338;2023-01-19T14:02:57;6.40;99.90
40828;DHT22;26549;50.918;5.338;2023-01-19T14:05:25;6.70;99.90
40828;DHT22;26549;50.918;5.338;2023-01-19T14:08:05;6.60;99.90
40828;DHT22;26549;50.918;5.338;2023-01-19T14:10:33;6.30;99.90
40828;DHT22;26549;50.918;5.338;2023-01-19T14:13:03;6.60;99.90
40828;DHT22;26549;50.918;5.338;2023-01-19T14:15:32;6.30;99.90
40828;DHT22;26549;50.918;5.338;2023-01-19T14:26:03;6.00;99.90
40828;DHT22;26549;50.918;5.338;2023-01-19T14:28:42;5.90;99.90
40828;DHT22;26549;50.918;5.338;2023-01-19T14:31:23;5.80;99.90
40828;DHT22;26549;50.918;5.338;2023-01-19T14:33:55;5.80;99.90
40828;DHT22;26549;50.918;5.338;2023-01-19T14:36:25;5.50;99.90
40828;DHT22;26549;50.918;5.338;2023-01-19T14:38:53;5.10;99.90
40828;DHT22;26549;50.918;5.338;2023-01-19T14:41:38;5.10;99.90
40828;DHT22;26549;50.918;5.338;2023-01-19T14:44:16;4.90;99.90
40828;DHT22;26549;50.918;5.338;2023-01-19T14:46:45;5.10;99.90
40828;DHT22;26549;50.918;5.338;2023-01-19T14:49:18;5.10;99.90
40828;DHT22;26549;50.918;5.338;2023-01-19T14:51:46;5.10;99.90
40828;DHT22;26549;50.918;5.338;2023-01-19T14:54:16;5.20;99.90
40828;DHT22;26549;50.918;5.338;2023-01-19T14:56:43;5.30;99.90
40828;DHT22;26549;50.918;5.338;2023-01-19T14:59:09;5.20;99.90
40828;DHT22;26549;50.918;5.338;2023-01-19T15:01:37;5.20;99.90
40828;DHT22;26549;50.918;5.338;2023-01-19T15:04:03;5.30;99.90
40828;DHT22;26549;50.918;5.338;2023-01-19T15:06:28;5.30;99.90
40828;DHT22;26549;50.918;5.338;2023-01-19T15:08:55;5.40;99.90
40828;DHT22;26549;50.918;5.338;2023-01-19T15:11:33;5.40;99.90
40828;DHT22;26549;50.918;5.338;2023-01-19T15:13:59;5.40;99.90
40828;DHT22;26549;50.918;5.338;2023-01-19T15:16:28;5.40;99.90
40828;DHT22;26549;50.918;5.338;2023-01-19T15:18:54;5.30;99.90
40828;DHT22;26549;50.918;5.338;2023-01-19T15:21:21;5.60;99.90
40828;DHT22;26549;50.918;5.338;2023-01-19T15:23:53;5.50;99.90
40828;DHT22;26549;50.918;5.338;2023-01-19T15:26:22;5.50;99.90
40828;DHT22;26549;50.918;5.338;2023-01-19T15:28:48;5.50;99.90
40828;DHT22;26549;50.918;5.338;2023-01-19T15:31:16;5.40;99.90
40828;DHT22;26549;50.918;5.338;2023-01-19T15:33:42;5.40;99.90
40828;DHT22;26549;50.918;5.338;2023-01-19T15:36:17;5.40;99.90
40828;DHT22;26549;50.918;5.338;2023-01-19T15:38:45;5.30;99.90
40828;DHT22;26549;50.918;5.338;2023-01-19T15:41:13;5.40;99.90
40828;DHT22;26549;50.918;5.338;2023-01-19T15:43:39;5.50;99.90
40828;DHT22;26549;50.918;5.338;2023-01-19T15:46:05;5.40;99.90
40828;DHT22;26549;50.918;5.338;2023-01-19T15:48:31;5.50;99.90
40828;DHT22;26549;50.918;5.338;2023-01-19T15:50:57;5.50;99.90
40828;DHT22;26549;50.918;5.338;2023-01-19T15:53:22;5.50;99.90
40828;DHT22;26549;50.918;5.338;2023-01-19T15:55:52;5.70;99.90
40828;DHT22;26549;50.918;5.338;2023-01-19T15:58:23;5.60;99.90
40828;DHT22;26549;50.918;5.338;2023-01-19T16:00:54;5.60;99.90
40828;DHT22;26549;50.918;5.338;2023-01-19T16:03:21;5.60;99.90
40828;DHT22;26549;50.918;5.338;2023-01-19T16:05:48;5.60;99.90
40828;DHT22;26549;50.918;5.338;2023-01-19T16:08:14;5.70;99.90
40828;DHT22;26549;50.918;5.338;2023-01-19T16:10:40;5.70;99.90
40828;DHT22;26549;50.918;5.338;2023-01-19T16:13:07;5.60;99.90
40828;DHT22;26549;50.918;5.338;2023-01-19T16:15:35;5.80;99.90
40828;DHT22;26549;50.918;5.338;2023-01-19T16:18:02;5.70;99.90
40828;DHT22;26549;50.918;5.338;2023-01-19T16:20:28;5.70;99.90
40828;DHT22;26549;50.918;5.338;2023-01-19T16:22:59;5.80;99.90
40828;DHT22;26549;50.918;5.338;2023-01-19T16:25:25;5.70;99.90
40828;DHT22;26549;50.918;5.338;2023-01-19T16:27:54;5.70;99.90
40828;DHT22;26549;50.918;5.338;2023-01-19T16:30:21;5.70;99.90
40828;DHT22;26549;50.918;5.338;2023-01-19T16:32:48;5.60;99.90
40828;DHT22;26549;50.918;5.338;2023-01-19T16:35:14;5.60;99.90
40828;DHT22;26549;50.918;5.338;2023-01-19T16:37:40;5.60;99.90
40828;DHT22;26549;50.918;5.338;2023-01-19T16:40:07;5.70;99.90
40828;DHT22;26549;50.918;5.338;2023-01-19T16:42:34;5.70;99.90
40828;DHT22;26549;50.918;5.338;2023-01-19T16:44:59;5.90;99.90
40828;DHT22;26549;50.918;5.338;2023-01-19T16:47:25;5.80;99.90
40828;DHT22;26549;50.918;5.338;2023-01-19T16:49:51;5.70;99.90
40828;DHT22;26549;50.918;5.338;2023-01-19T16:52:19;5.70;99.90
40828;DHT22;26549;50.918;5.338;2023-01-19T16:54:45;5.70;99.90
40828;DHT22;26549;50.918;5.338;2023-01-19T16:57:10;5.70;99.90
40828;DHT22;26549;50.918;5.338;2023-01-19T16:59:36;5.60;99.90
40828;DHT22;26549;50.918;5.338;2023-01-19T17:02:04;5.60;99.90
40828;DHT22;26549;50.918;5.338;2023-01-19T17:04:29;5.50;99.90